sensor_id;sensor_type;location;lat;lon;timestamp;P1;durP1;ratioP1;P2;durP2;ratioP2
57826;SDS011;43656;57.746;11.780;2023-04-06T00:00:47;3.53;;;2.28;;
57826;SDS011;43656;57.746;11.780;2023-04-06T00:03:13;3.42;;;2.25;;
57826;SDS011;43656;57.746;11.780;2023-04-06T00:05:39;3.50;;;2.03;;
57826;SDS011;43656;57.746;11.780;2023-04-06T00:08:05;2.10;;;1.90;;
57826;SDS011;43656;57.746;11.780;2023-04-06T00:10:30;3.85;;;2.10;;
57826;SDS011;43656;57.746;11.780;2023-04-06T00:12:57;3.10;;;2.00;;
57826;SDS011;43656;57.746;11.780;2023-04-06T00:15:23;5.55;;;2.17;;
57826;SDS011;43656;57.746;11.780;2023-04-06T00:17:48;4.32;;;2.42;;
57826;SDS011;43656;57.746;11.780;2023-04-06T00:20:14;4.55;;;2.40;;
57826;SDS011;43656;57.746;11.780;2023-04-06T00:22:40;2.78;;;2.20;;
57826;SDS011;43656;57.746;11.780;2023-04-06T00:25:06;4.22;;;2.00;;
57826;SDS011;43656;57.746;11.780;2023-04-06T00:27:31;3.55;;;2.40;;
57826;SDS011;43656;57.746;11.780;2023-04-06T00:29:57;3.42;;;2.05;;
57826;SDS011;43656;57.746;11.780;2023-04-06T00:32:22;4.85;;;2.28;;
57826;SDS011;43656;57.746;11.780;2023-04-06T00:34:48;4.38;;;2.30;;
57826;SDS011;43656;57.746;11.780;2023-04-06T00:37:13;3.45;;;2.15;;
57826;SDS011;43656;57.746;11.780;2023-04-06T00:39:38;2.60;;;1.90;;
57826;SDS011;43656;57.746;11.780;2023-04-06T00:42:08;3.22;;;2.00;;
57826;SDS011;43656;57.746;11.780;2023-04-06T00:44:38;4.90;;;2.30;;
57826;SDS011;43656;57.746;11.780;2023-04-06T00:47:03;3.67;;;2.10;;
57826;SDS011;43656;57.746;11.780;2023-04-06T00:49:29;5.40;;;2.42;;
57826;SDS011;43656;57.746;11.780;2023-04-06T00:51:54;5.40;;;2.13;;
57826;SDS011;43656;57.746;11.780;2023-04-06T00:54:20;3.00;;;2.17;;
57826;SDS011;43656;57.746;11.780;2023-04-06T00:56:45;3.75;;;2.10;;
57826;SDS011;43656;57.746;11.780;2023-04-06T00:59:11;4.10;;;1.92;;
57826;SDS011;43656;57.746;11.780;2023-04-06T01:01:37;3.88;;;2.30;;
57826;SDS011;43656;57.746;11.780;2023-04-06T01:04:02;2.80;;;1.85;;
57826;SDS011;43656;57.746;11.780;2023-04-06T01:06:28;2.92;;;1.77;;
57826;SDS011;43656;57.746;11.780;2023-04-06T01:08:54;4.15;;;2.40;;
57826;SDS011;43656;57.746;11.780;2023-04-06T01:11:20;3.15;;;2.20;;
57826;SDS011;43656;57.746;11.780;2023-04-06T01:13:46;2.63;;;1.88;;
57826;SDS011;43656;57.746;11.780;2023-04-06T01:16:12;3.95;;;2.20;;
57826;SDS011;43656;57.746;11.780;2023-04-06T01:18:37;4.20;;;2.05;;
57826;SDS011;43656;57.746;11.780;2023-04-06T01:21:03;3.95;;;2.20;;
57826;SDS011;43656;57.746;11.780;2023-04-06T01:23:28;2.60;;;2.00;;
57826;SDS011;43656;57.746;11.780;2023-04-06T01:25:54;3.67;;;2.08;;
57826;SDS011;43656;57.746;11.780;2023-04-06T01:28:19;3.67;;;2.03;;
57826;SDS011;43656;57.746;11.780;2023-04-06T01:30:45;5.75;;;2.00;;
57826;SDS011;43656;57.746;11.780;2023-04-06T01:33:11;3.38;;;2.08;;
57826;SDS011;43656;57.746;11.780;2023-04-06T01:35:36;4.32;;;2.10;;
57826;SDS011;43656;57.746;11.780;2023-04-06T01:38:02;3.40;;;2.13;;
57826;SDS011;43656;57.746;11.780;2023-04-06T01:40:27;4.95;;;2.08;;
57826;SDS011;43656;57.746;11.780;2023-04-06T01:42:52;3.55;;;2.15;;
57826;SDS011;43656;57.746;11.780;2023-04-06T01:45:18;3.17;;;2.00;;
57826;SDS011;43656;57.746;11.780;2023-04-06T01:47:43;3.95;;;2.00;;
57826;SDS011;43656;57.746;11.780;2023-04-06T01:50:09;3.85;;;2.00;;
57826;SDS011;43656;57.746;11.780;2023-04-06T01:52:34;3.55;;;2.05;;
57826;SDS011;43656;57.746;11.780;2023-04-06T01:54:59;3.58;;;1.90;;
57826;SDS011;43656;57.746;11.780;2023-04-06T01:57:25;2.58;;;1.85;;
57826;SDS011;43656;57.746;11.780;2023-04-06T01:59:50;3.33;;;2.03;;
57826;SDS011;43656;57.746;11.780;2023-04-06T02:02:16;3.10;;;1.75;;
57826;SDS011;43656;57.746;11.780;2023-04-06T02:04:42;7.60;;;1.73;;
57826;SDS011;43656;57.746;11.780;2023-04-06T02:07:07;5.03;;;1.98;;
57826;SDS011;43656;57.746;11.780;2023-04-06T02:09:32;3.42;;;1.88;;
57826;SDS011;43656;57.746;11.780;2023-04-06T02:11:58;2.72;;;1.80;;
57826;SDS011;43656;57.746;11.780;2023-04-06T02:14:24;1.98;;;1.77;;
57826;SDS011;43656;57.746;11.780;2023-04-06T02:16:51;3.42;;;1.80;;
57826;SDS011;43656;57.746;11.780;2023-04-06T02:19:16;3.08;;;1.70;;
57826;SDS011;43656;57.746;11.780;2023-04-06T02:21:42;2.10;;;1.70;;
57826;SDS011;43656;57.746;11.780;2023-04-06T02:24:07;3.25;;;1.85;;
57826;SDS011;43656;57.746;11.780;2023-04-06T02:26:33;3.20;;;1.52;;
57826;SDS011;43656;57.746;11.780;2023-04-06T02:28:58;2.72;;;1.67;;
57826;SDS011;43656;57.746;11.780;2023-04-06T02:31:24;3.58;;;1.80;;
57826;SDS011;43656;57.746;11.780;2023-04-06T02:33:49;2.33;;;1.70;;
57826;SDS011;43656;57.746;11.780;2023-04-06T02:36:14;2.78;;;1.80;;
57826;SDS011;43656;57.746;11.780;2023-04-06T02:38:40;3.33;;;1.80;;
57826;SDS011;43656;57.746;11.780;2023-04-06T02:41:05;4.22;;;1.70;;
57826;SDS011;43656;57.746;11.780;2023-04-06T02:43:31;2.47;;;1.85;;
57826;SDS011;43656;57.746;11.780;2023-04-06T02:45:56;2.97;;;1.83;;
57826;SDS011;43656;57.746;11.780;2023-04-06T02:48:21;3.28;;;1.70;;
57826;SDS011;43656;57.746;11.780;2023-04-06T02:50:47;2.75;;;1.80;;
57826;SDS011;43656;57.746;11.780;2023-04-06T02:53:12;3.20;;;1.90;;
57826;SDS011;43656;57.746;11.780;2023-04-06T02:55:37;3.38;;;2.10;;
57826;SDS011;43656;57.746;11.780;2023-04-06T02:58:03;3.00;;;2.08;;
57826;SDS011;43656;57.746;11.780;2023-04-06T03:00:28;3.83;;;2.10;;
57826;SDS011;43656;57.746;11.780;2023-04-06T03:02:54;3.00;;;2.03;;
57826;SDS011;43656;57.746;11.780;2023-04-06T03:05:19;3.97;;;1.98;;
57826;SDS011;43656;57.746;11.780;2023-04-06T03:07:45;3.33;;;1.90;;
57826;SDS011;43656;57.746;11.780;2023-04-06T03:10:10;2.92;;;2.15;;
57826;SDS011;43656;57.746;11.780;2023-04-06T03:12:36;2.85;;;1.95;;
57826;SDS011;43656;57.746;11.780;2023-04-06T03:15:01;3.70;;;2.05;;
57826;SDS011;43656;57.746;11.780;2023-04-06T03:17:27;2.63;;;2.17;;
57826;SDS011;43656;57.746;11.780;2023-04-06T03:19:52;4.00;;;2.22;;
57826;SDS011;43656;57.746;11.780;2023-04-06T03:22:17;3.75;;;1.92;;
57826;SDS011;43656;57.746;11.780;2023-04-06T03:24:43;2.45;;;2.00;;
57826;SDS011;43656;57.746;11.780;2023-04-06T03:27:08;3.97;;;2.20;;
57826;SDS011;43656;57.746;11.780;2023-04-06T03:29:34;4.25;;;2.13;;
57826;SDS011;43656;57.746;11.780;2023-04-06T03:32:00;3.38;;;2.33;;
57826;SDS011;43656;57.746;11.780;2023-04-06T03:34:26;4.38;;;2.30;;
57826;SDS011;43656;57.746;11.780;2023-04-06T03:36:51;3.78;;;2.35;;
57826;SDS011;43656;57.746;11.780;2023-04-06T03:39:16;3.42;;;2.47;;
57826;SDS011;43656;57.746;11.780;2023-04-06T03:41:42;4.30;;;2.30;;
57826;SDS011;43656;57.746;11.780;2023-04-06T03:44:09;2.97;;;2.22;;
57826;SDS011;43656;57.746;11.780;2023-04-06T03:46:34;2.65;;;2.13;;
57826;SDS011;43656;57.746;11.780;2023-04-06T03:49:00;3.78;;;2.22;;
57826;SDS011;43656;57.746;11.780;2023-04-06T03:51:25;3.53;;;1.90;;
57826;SDS011;43656;57.746;11.780;2023-04-06T03:53:51;2.97;;;2.33;;
57826;SDS011;43656;57.746;11.780;2023-04-06T03:56:16;3.75;;;2.38;;
57826;SDS011;43656;57.746;11.780;2023-04-06T03:58:42;3.33;;;2.65;;
57826;SDS011;43656;57.746;11.780;2023-04-06T04:01:09;3.17;;;2.30;;
57826;SDS011;43656;57.746;11.780;2023-04-06T04:03:34;3.75;;;2.03;;
57826;SDS011;43656;57.746;11.780;2023-04-06T04:06:00;3.13;;;2.35;;
57826;SDS011;43656;57.746;11.780;2023-04-06T04:08:25;4.25;;;2.33;;
57826;SDS011;43656;57.746;11.780;2023-04-06T04:10:51;4.35;;;2.33;;
57826;SDS011;43656;57.746;11.780;2023-04-06T04:13:16;5.03;;;2.45;;
57826;SDS011;43656;57.746;11.780;2023-04-06T04:15:42;3.38;;;2.25;;
57826;SDS011;43656;57.746;11.780;2023-04-06T04:18:07;3.55;;;2.30;;
57826;SDS011;43656;57.746;11.780;2023-04-06T04:20:33;3.55;;;2.30;;
57826;SDS011;43656;57.746;11.780;2023-04-06T04:22:59;3.58;;;2.30;;
57826;SDS011;43656;57.746;11.780;2023-04-06T04:25:24;3.53;;;2.40;;
57826;SDS011;43656;57.746;11.780;2023-04-06T04:27:49;4.53;;;2.40;;
57826;SDS011;43656;57.746;11.780;2023-04-06T04:30:15;4.43;;;2.42;;
57826;SDS011;43656;57.746;11.780;2023-04-06T04:32:41;4.05;;;2.72;;
57826;SDS011;43656;57.746;11.780;2023-04-06T04:35:06;5.30;;;2.47;;
57826;SDS011;43656;57.746;11.780;2023-04-06T04:37:32;3.97;;;2.60;;
57826;SDS011;43656;57.746;11.780;2023-04-06T04:39:59;3.05;;;2.33;;
57826;SDS011;43656;57.746;11.780;2023-04-06T04:42:25;3.60;;;2.42;;
57826;SDS011;43656;57.746;11.780;2023-04-06T04:44:50;3.55;;;2.88;;
57826;SDS011;43656;57.746;11.780;2023-04-06T04:47:16;5.05;;;3.08;;
57826;SDS011;43656;57.746;11.780;2023-04-06T04:49:41;4.20;;;2.83;;
57826;SDS011;43656;57.746;11.780;2023-04-06T04:52:07;5.22;;;2.72;;
57826;SDS011;43656;57.746;11.780;2023-04-06T04:54:32;4.78;;;3.08;;
57826;SDS011;43656;57.746;11.780;2023-04-06T04:56:57;4.15;;;3.03;;
57826;SDS011;43656;57.746;11.780;2023-04-06T04:59:23;3.70;;;2.97;;
57826;SDS011;43656;57.746;11.780;2023-04-06T05:01:48;6.18;;;3.20;;
57826;SDS011;43656;57.746;11.780;2023-04-06T05:04:14;6.47;;;4.00;;
57826;SDS011;43656;57.746;11.780;2023-04-06T05:06:39;6.45;;;3.80;;
57826;SDS011;43656;57.746;11.780;2023-04-06T05:09:05;5.57;;;3.97;;
57826;SDS011;43656;57.746;11.780;2023-04-06T05:11:30;8.48;;;4.50;;
57826;SDS011;43656;57.746;11.780;2023-04-06T05:13:55;6.32;;;4.10;;
57826;SDS011;43656;57.746;11.780;2023-04-06T05:16:21;6.13;;;4.25;;
57826;SDS011;43656;57.746;11.780;2023-04-06T05:18:47;6.63;;;4.30;;
57826;SDS011;43656;57.746;11.780;2023-04-06T05:21:13;5.75;;;4.07;;
57826;SDS011;43656;57.746;11.780;2023-04-06T05:23:38;5.93;;;4.13;;
57826;SDS011;43656;57.746;11.780;2023-04-06T05:26:04;6.43;;;4.18;;
57826;SDS011;43656;57.746;11.780;2023-04-06T05:28:30;8.10;;;4.38;;
57826;SDS011;43656;57.746;11.780;2023-04-06T05:30:55;7.70;;;4.90;;
57826;SDS011;43656;57.746;11.780;2023-04-06T05:33:21;5.32;;;4.10;;
57826;SDS011;43656;57.746;11.780;2023-04-06T05:35:47;6.15;;;3.80;;
57826;SDS011;43656;57.746;11.780;2023-04-06T05:38:13;5.85;;;4.25;;
57826;SDS011;43656;57.746;11.780;2023-04-06T05:40:38;6.40;;;4.13;;
57826;SDS011;43656;57.746;11.780;2023-04-06T05:43:05;6.30;;;4.25;;
57826;SDS011;43656;57.746;11.780;2023-04-06T05:45:31;5.05;;;3.88;;
57826;SDS011;43656;57.746;11.780;2023-04-06T05:47:57;6.80;;;4.03;;
57826;SDS011;43656;57.746;11.780;2023-04-06T05:50:22;6.05;;;4.10;;
57826;SDS011;43656;57.746;11.780;2023-04-06T05:52:48;6.00;;;4.15;;
57826;SDS011;43656;57.746;11.780;2023-04-06T05:55:13;6.78;;;3.88;;
57826;SDS011;43656;57.746;11.780;2023-04-06T05:57:38;4.28;;;3.28;;
57826;SDS011;43656;57.746;11.780;2023-04-06T06:00:05;5.25;;;2.70;;
57826;SDS011;43656;57.746;11.780;2023-04-06T06:02:33;4.40;;;3.22;;
57826;SDS011;43656;57.746;11.780;2023-04-06T06:04:59;4.45;;;2.53;;
57826;SDS011;43656;57.746;11.780;2023-04-06T06:07:25;5.55;;;2.90;;
57826;SDS011;43656;57.746;11.780;2023-04-06T06:09:50;3.13;;;2.30;;
57826;SDS011;43656;57.746;11.780;2023-04-06T06:12:15;3.65;;;2.38;;
57826;SDS011;43656;57.746;11.780;2023-04-06T06:14:41;3.80;;;2.63;;
57826;SDS011;43656;57.746;11.780;2023-04-06T06:17:06;3.38;;;2.25;;
57826;SDS011;43656;57.746;11.780;2023-04-06T06:19:32;2.80;;;2.13;;
57826;SDS011;43656;57.746;11.780;2023-04-06T06:21:57;4.28;;;2.20;;
57826;SDS011;43656;57.746;11.780;2023-04-06T06:24:23;2.45;;;2.20;;
57826;SDS011;43656;57.746;11.780;2023-04-06T06:26:49;2.58;;;2.15;;
57826;SDS011;43656;57.746;11.780;2023-04-06T06:29:14;6.85;;;2.35;;
57826;SDS011;43656;57.746;11.780;2023-04-06T06:31:40;2.95;;;2.30;;
57826;SDS011;43656;57.746;11.780;2023-04-06T06:34:05;4.38;;;2.20;;
57826;SDS011;43656;57.746;11.780;2023-04-06T06:36:31;3.28;;;2.30;;
57826;SDS011;43656;57.746;11.780;2023-04-06T06:38:57;2.42;;;2.03;;
57826;SDS011;43656;57.746;11.780;2023-04-06T06:41:23;4.57;;;2.30;;
57826;SDS011;43656;57.746;11.780;2023-04-06T06:43:49;2.97;;;2.10;;
57826;SDS011;43656;57.746;11.780;2023-04-06T06:46:14;3.67;;;2.10;;
57826;SDS011;43656;57.746;11.780;2023-04-06T06:48:40;2.67;;;2.30;;
57826;SDS011;43656;57.746;11.780;2023-04-06T06:51:05;2.42;;;1.90;;
57826;SDS011;43656;57.746;11.780;2023-04-06T06:53:31;3.03;;;2.20;;
57826;SDS011;43656;57.746;11.780;2023-04-06T06:55:56;2.85;;;2.10;;
57826;SDS011;43656;57.746;11.780;2023-04-06T06:58:22;3.13;;;2.00;;
57826;SDS011;43656;57.746;11.780;2023-04-06T07:00:47;3.53;;;2.22;;
57826;SDS011;43656;57.746;11.780;2023-04-06T07:03:12;2.97;;;2.15;;
57826;SDS011;43656;57.746;11.780;2023-04-06T07:05:38;3.65;;;2.42;;
57826;SDS011;43656;57.746;11.780;2023-04-06T07:08:04;2.63;;;2.20;;
57826;SDS011;43656;57.746;11.780;2023-04-06T07:10:30;3.20;;;2.28;;
57826;SDS011;43656;57.746;11.780;2023-04-06T07:12:55;3.35;;;2.20;;
57826;SDS011;43656;57.746;11.780;2023-04-06T07:15:21;4.05;;;2.35;;
57826;SDS011;43656;57.746;11.780;2023-04-06T07:17:47;3.22;;;2.13;;
57826;SDS011;43656;57.746;11.780;2023-04-06T07:20:12;3.10;;;2.08;;
57826;SDS011;43656;57.746;11.780;2023-04-06T07:22:39;3.08;;;2.17;;
57826;SDS011;43656;57.746;11.780;2023-04-06T07:25:05;2.83;;;2.15;;
57826;SDS011;43656;57.746;11.780;2023-04-06T07:27:31;4.10;;;2.20;;
57826;SDS011;43656;57.746;11.780;2023-04-06T07:29:56;4.30;;;2.65;;
57826;SDS011;43656;57.746;11.780;2023-04-06T07:32:21;3.85;;;2.28;;
57826;SDS011;43656;57.746;11.780;2023-04-06T07:34:47;3.60;;;2.25;;
57826;SDS011;43656;57.746;11.780;2023-04-06T07:37:12;3.67;;;2.40;;
57826;SDS011;43656;57.746;11.780;2023-04-06T07:39:38;3.85;;;2.60;;
57826;SDS011;43656;57.746;11.780;2023-04-06T07:42:03;3.38;;;2.28;;
57826;SDS011;43656;57.746;11.780;2023-04-06T07:44:29;3.67;;;2.80;;
57826;SDS011;43656;57.746;11.780;2023-04-06T07:46:55;3.30;;;2.38;;
57826;SDS011;43656;57.746;11.780;2023-04-06T07:49:20;4.95;;;2.40;;
57826;SDS011;43656;57.746;11.780;2023-04-06T07:51:46;4.45;;;2.60;;
57826;SDS011;43656;57.746;11.780;2023-04-06T07:54:11;3.40;;;2.50;;
57826;SDS011;43656;57.746;11.780;2023-04-06T07:56:37;3.13;;;2.55;;
57826;SDS011;43656;57.746;11.780;2023-04-06T07:59:02;3.88;;;2.13;;
57826;SDS011;43656;57.746;11.780;2023-04-06T08:01:28;3.83;;;2.30;;
57826;SDS011;43656;57.746;11.780;2023-04-06T08:03:55;4.00;;;2.67;;
57826;SDS011;43656;57.746;11.780;2023-04-06T08:06:21;3.50;;;2.20;;
57826;SDS011;43656;57.746;11.780;2023-04-06T08:08:46;3.67;;;2.42;;
57826;SDS011;43656;57.746;11.780;2023-04-06T08:11:11;4.65;;;2.20;;
57826;SDS011;43656;57.746;11.780;2023-04-06T08:13:37;2.88;;;2.33;;
57826;SDS011;43656;57.746;11.780;2023-04-06T08:16:02;4.40;;;2.20;;
57826;SDS011;43656;57.746;11.780;2023-04-06T08:18:28;2.85;;;2.20;;
57826;SDS011;43656;57.746;11.780;2023-04-06T08:20:55;3.25;;;2.53;;
57826;SDS011;43656;57.746;11.780;2023-04-06T08:23:21;3.53;;;2.28;;
57826;SDS011;43656;57.746;11.780;2023-04-06T08:25:46;3.28;;;2.40;;
57826;SDS011;43656;57.746;11.780;2023-04-06T08:28:12;3.67;;;2.55;;
57826;SDS011;43656;57.746;11.780;2023-04-06T08:30:40;3.45;;;3.08;;
57826;SDS011;43656;57.746;11.780;2023-04-06T08:33:06;3.45;;;2.40;;
57826;SDS011;43656;57.746;11.780;2023-04-06T08:35:32;3.15;;;2.38;;
57826;SDS011;43656;57.746;11.780;2023-04-06T08:37:57;3.50;;;2.35;;
57826;SDS011;43656;57.746;11.780;2023-04-06T08:40:23;4.43;;;2.47;;
57826;SDS011;43656;57.746;11.780;2023-04-06T08:42:54;5.18;;;2.67;;
57826;SDS011;43656;57.746;11.780;2023-04-06T08:45:20;5.18;;;2.40;;
57826;SDS011;43656;57.746;11.780;2023-04-06T08:47:47;3.28;;;2.28;;
57826;SDS011;43656;57.746;11.780;2023-04-06T08:50:14;4.55;;;2.30;;
57826;SDS011;43656;57.746;11.780;2023-04-06T08:52:43;3.30;;;2.35;;
57826;SDS011;43656;57.746;11.780;2023-04-06T08:55:09;3.80;;;2.40;;
57826;SDS011;43656;57.746;11.780;2023-04-06T08:57:35;3.33;;;2.45;;
57826;SDS011;43656;57.746;11.780;2023-04-06T09:00:01;4.03;;;2.83;;
57826;SDS011;43656;57.746;11.780;2023-04-06T09:02:27;6.05;;;3.30;;
57826;SDS011;43656;57.746;11.780;2023-04-06T09:04:53;5.80;;;2.80;;
57826;SDS011;43656;57.746;11.780;2023-04-06T09:07:19;6.15;;;3.35;;
57826;SDS011;43656;57.746;11.780;2023-04-06T09:09:45;5.68;;;3.17;;
57826;SDS011;43656;57.746;11.780;2023-04-06T09:12:26;6.55;;;3.08;;
57826;SDS011;43656;57.746;11.780;2023-04-06T09:14:53;7.20;;;3.35;;
57826;SDS011;43656;57.746;11.780;2023-04-06T09:19:48;9.35;;;4.05;;
57826;SDS011;43656;57.746;11.780;2023-04-06T09:22:14;4.88;;;3.45;;
57826;SDS011;43656;57.746;11.780;2023-04-06T09:24:41;5.38;;;3.58;;
57826;SDS011;43656;57.746;11.780;2023-04-06T09:27:13;7.30;;;4.00;;
57826;SDS011;43656;57.746;11.780;2023-04-06T09:29:40;6.15;;;3.65;;
57826;SDS011;43656;57.746;11.780;2023-04-06T09:32:06;5.38;;;4.00;;
57826;SDS011;43656;57.746;11.780;2023-04-06T09:34:37;8.15;;;4.05;;
57826;SDS011;43656;57.746;11.780;2023-04-06T09:37:16;6.40;;;3.88;;
57826;SDS011;43656;57.746;11.780;2023-04-06T09:39:43;5.25;;;3.45;;
57826;SDS011;43656;57.746;11.780;2023-04-06T09:42:22;5.25;;;3.80;;
57826;SDS011;43656;57.746;11.780;2023-04-06T09:44:50;5.13;;;3.65;;
57826;SDS011;43656;57.746;11.780;2023-04-06T09:47:15;6.68;;;4.03;;
57826;SDS011;43656;57.746;11.780;2023-04-06T09:49:41;7.32;;;4.22;;
57826;SDS011;43656;57.746;11.780;2023-04-06T09:52:08;6.05;;;4.10;;
57826;SDS011;43656;57.746;11.780;2023-04-06T09:54:36;5.28;;;3.70;;
57826;SDS011;43656;57.746;11.780;2023-04-06T09:57:21;6.07;;;3.97;;
57826;SDS011;43656;57.746;11.780;2023-04-06T10:02:37;7.55;;;4.25;;
57826;SDS011;43656;57.746;11.780;2023-04-06T10:05:10;5.20;;;4.40;;
57826;SDS011;43656;57.746;11.780;2023-04-06T10:07:42;8.05;;;4.45;;
57826;SDS011;43656;57.746;11.780;2023-04-06T10:10:07;7.30;;;4.38;;
57826;SDS011;43656;57.746;11.780;2023-04-06T10:12:35;7.88;;;4.70;;
57826;SDS011;43656;57.746;11.780;2023-04-06T10:15:02;7.10;;;4.80;;
57826;SDS011;43656;57.746;11.780;2023-04-06T10:17:28;8.65;;;4.63;;
57826;SDS011;43656;57.746;11.780;2023-04-06T10:19:59;6.15;;;4.40;;
57826;SDS011;43656;57.746;11.780;2023-04-06T10:22:34;6.82;;;4.97;;
57826;SDS011;43656;57.746;11.780;2023-04-06T10:25:07;8.00;;;4.70;;
57826;SDS011;43656;57.746;11.780;2023-04-06T10:27:33;9.98;;;5.72;;
57826;SDS011;43656;57.746;11.780;2023-04-06T10:30:05;13.45;;;6.07;;
57826;SDS011;43656;57.746;11.780;2023-04-06T10:32:35;11.70;;;7.00;;
57826;SDS011;43656;57.746;11.780;2023-04-06T10:35:05;10.57;;;7.53;;
57826;SDS011;43656;57.746;11.780;2023-04-06T10:37:45;14.15;;;7.68;;
57826;SDS011;43656;57.746;11.780;2023-04-06T10:40:18;16.08;;;9.45;;
57826;SDS011;43656;57.746;11.780;2023-04-06T10:42:53;13.35;;;9.32;;
57826;SDS011;43656;57.746;11.780;2023-04-06T10:45:20;12.73;;;9.02;;
57826;SDS011;43656;57.746;11.780;2023-04-06T10:47:49;14.13;;;9.35;;
57826;SDS011;43656;57.746;11.780;2023-04-06T10:50:17;12.27;;;9.35;;
57826;SDS011;43656;57.746;11.780;2023-04-06T10:52:46;15.05;;;9.48;;
57826;SDS011;43656;57.746;11.780;2023-04-06T10:55:12;15.32;;;8.75;;
57826;SDS011;43656;57.746;11.780;2023-04-06T10:57:39;15.65;;;9.57;;
57826;SDS011;43656;57.746;11.780;2023-04-06T11:00:05;13.52;;;9.63;;
57826;SDS011;43656;57.746;11.780;2023-04-06T11:02:32;20.13;;;10.50;;
57826;SDS011;43656;57.746;11.780;2023-04-06T11:04:59;14.98;;;10.48;;
57826;SDS011;43656;57.746;11.780;2023-04-06T11:07:28;15.98;;;11.13;;
57826;SDS011;43656;57.746;11.780;2023-04-06T11:09:54;13.65;;;10.48;;
57826;SDS011;43656;57.746;11.780;2023-04-06T11:12:26;16.70;;;10.05;;
57826;SDS011;43656;57.746;11.780;2023-04-06T11:14:57;17.00;;;10.93;;
57826;SDS011;43656;57.746;11.780;2023-04-06T11:17:29;17.85;;;9.85;;
57826;SDS011;43656;57.746;11.780;2023-04-06T11:19:56;15.88;;;9.80;;
57826;SDS011;43656;57.746;11.780;2023-04-06T11:22:22;15.23;;;9.60;;
57826;SDS011;43656;57.746;11.780;2023-04-06T11:24:48;17.58;;;8.98;;
57826;SDS011;43656;57.746;11.780;2023-04-06T11:27:14;17.20;;;9.43;;
57826;SDS011;43656;57.746;11.780;2023-04-06T11:29:43;17.73;;;8.85;;
57826;SDS011;43656;57.746;11.780;2023-04-06T11:32:11;19.33;;;8.93;;
57826;SDS011;43656;57.746;11.780;2023-04-06T11:34:37;15.43;;;9.20;;
57826;SDS011;43656;57.746;11.780;2023-04-06T11:37:07;17.15;;;8.57;;
57826;SDS011;43656;57.746;11.780;2023-04-06T11:39:39;16.13;;;7.95;;
57826;SDS011;43656;57.746;11.780;2023-04-06T11:42:11;14.70;;;8.35;;
57826;SDS011;43656;57.746;11.780;2023-04-06T11:44:42;12.30;;;7.68;;
57826;SDS011;43656;57.746;11.780;2023-04-06T11:47:11;15.25;;;7.35;;
57826;SDS011;43656;57.746;11.780;2023-04-06T11:49:38;13.52;;;7.55;;
57826;SDS011;43656;57.746;11.780;2023-04-06T11:52:14;13.18;;;7.75;;
57826;SDS011;43656;57.746;11.780;2023-04-06T11:54:41;14.77;;;7.35;;
57826;SDS011;43656;57.746;11.780;2023-04-06T11:57:07;15.43;;;6.80;;
57826;SDS011;43656;57.746;11.780;2023-04-06T11:59:33;13.70;;;6.68;;
57826;SDS011;43656;57.746;11.780;2023-04-06T12:01:59;15.57;;;6.47;;
57826;SDS011;43656;57.746;11.780;2023-04-06T12:04:25;7.78;;;5.13;;
57826;SDS011;43656;57.746;11.780;2023-04-06T12:06:51;11.95;;;6.20;;
57826;SDS011;43656;57.746;11.780;2023-04-06T12:09:16;14.43;;;5.72;;
57826;SDS011;43656;57.746;11.780;2023-04-06T12:11:45;10.90;;;5.35;;
57826;SDS011;43656;57.746;11.780;2023-04-06T12:14:11;9.27;;;4.97;;
57826;SDS011;43656;57.746;11.780;2023-04-06T12:16:37;10.13;;;4.82;;
57826;SDS011;43656;57.746;11.780;2023-04-06T12:19:03;9.68;;;4.57;;
57826;SDS011;43656;57.746;11.780;2023-04-06T12:21:28;9.90;;;4.70;;
57826;SDS011;43656;57.746;11.780;2023-04-06T12:23:58;11.00;;;4.50;;
57826;SDS011;43656;57.746;11.780;2023-04-06T12:26:25;6.85;;;4.43;;
57826;SDS011;43656;57.746;11.780;2023-04-06T12:28:51;10.02;;;4.13;;
57826;SDS011;43656;57.746;11.780;2023-04-06T12:31:17;9.95;;;4.43;;
57826;SDS011;43656;57.746;11.780;2023-04-06T12:33:45;9.18;;;4.15;;
57826;SDS011;43656;57.746;11.780;2023-04-06T12:36:12;8.02;;;4.30;;
57826;SDS011;43656;57.746;11.780;2023-04-06T12:38:39;8.38;;;4.53;;
57826;SDS011;43656;57.746;11.780;2023-04-06T12:41:06;8.18;;;3.95;;
57826;SDS011;43656;57.746;11.780;2023-04-06T12:43:31;7.40;;;3.80;;
57826;SDS011;43656;57.746;11.780;2023-04-06T12:45:57;9.80;;;4.05;;
57826;SDS011;43656;57.746;11.780;2023-04-06T12:48:22;8.45;;;4.25;;
57826;SDS011;43656;57.746;11.780;2023-04-06T12:51:00;9.00;;;3.65;;
57826;SDS011;43656;57.746;11.780;2023-04-06T12:53:26;14.23;;;4.07;;
57826;SDS011;43656;57.746;11.780;2023-04-06T12:55:53;8.82;;;3.60;;
57826;SDS011;43656;57.746;11.780;2023-04-06T12:58:19;5.57;;;3.50;;
57826;SDS011;43656;57.746;11.780;2023-04-06T13:00:46;9.15;;;3.65;;
57826;SDS011;43656;57.746;11.780;2023-04-06T13:03:12;6.05;;;3.20;;
57826;SDS011;43656;57.746;11.780;2023-04-06T13:05:44;7.45;;;3.00;;
57826;SDS011;43656;57.746;11.780;2023-04-06T13:08:14;6.53;;;2.90;;
57826;SDS011;43656;57.746;11.780;2023-04-06T13:10:43;7.07;;;2.50;;
57826;SDS011;43656;57.746;11.780;2023-04-06T13:13:21;6.47;;;3.00;;
57826;SDS011;43656;57.746;11.780;2023-04-06T13:15:51;4.78;;;2.90;;
57826;SDS011;43656;57.746;11.780;2023-04-06T13:18:17;5.35;;;2.53;;
57826;SDS011;43656;57.746;11.780;2023-04-06T13:20:43;5.32;;;2.70;;
57826;SDS011;43656;57.746;11.780;2023-04-06T13:23:08;8.18;;;2.60;;
57826;SDS011;43656;57.746;11.780;2023-04-06T13:25:34;5.70;;;2.30;;
57826;SDS011;43656;57.746;11.780;2023-04-06T13:28:00;5.00;;;2.30;;
57826;SDS011;43656;57.746;11.780;2023-04-06T13:30:25;5.18;;;2.30;;
57826;SDS011;43656;57.746;11.780;2023-04-06T13:32:51;5.22;;;2.20;;
57826;SDS011;43656;57.746;11.780;2023-04-06T13:35:17;3.75;;;2.08;;
57826;SDS011;43656;57.746;11.780;2023-04-06T13:37:43;7.20;;;2.05;;
57826;SDS011;43656;57.746;11.780;2023-04-06T13:40:09;4.75;;;2.13;;
57826;SDS011;43656;57.746;11.780;2023-04-06T13:42:35;7.05;;;2.10;;
57826;SDS011;43656;57.746;11.780;2023-04-06T13:45:00;6.22;;;1.98;;
57826;SDS011;43656;57.746;11.780;2023-04-06T13:47:26;5.13;;;2.10;;
57826;SDS011;43656;57.746;11.780;2023-04-06T13:49:52;5.55;;;2.13;;
57826;SDS011;43656;57.746;11.780;2023-04-06T13:52:19;5.85;;;2.40;;
57826;SDS011;43656;57.746;11.780;2023-04-06T13:54:44;4.45;;;2.30;;
57826;SDS011;43656;57.746;11.780;2023-04-06T13:57:11;6.40;;;2.60;;
57826;SDS011;43656;57.746;11.780;2023-04-06T13:59:37;4.43;;;2.40;;
57826;SDS011;43656;57.746;11.780;2023-04-06T14:02:04;5.30;;;2.20;;
57826;SDS011;43656;57.746;11.780;2023-04-06T14:04:31;5.50;;;2.40;;
57826;SDS011;43656;57.746;11.780;2023-04-06T14:06:57;4.32;;;2.17;;
57826;SDS011;43656;57.746;11.780;2023-04-06T14:09:23;4.72;;;2.20;;
57826;SDS011;43656;57.746;11.780;2023-04-06T14:11:49;4.80;;;1.83;;
57826;SDS011;43656;57.746;11.780;2023-04-06T14:14:15;7.82;;;2.42;;
57826;SDS011;43656;57.746;11.780;2023-04-06T14:16:41;3.38;;;1.95;;
57826;SDS011;43656;57.746;11.780;2023-04-06T14:19:09;3.97;;;1.95;;
57826;SDS011;43656;57.746;11.780;2023-04-06T14:21:37;3.22;;;1.90;;
57826;SDS011;43656;57.746;11.780;2023-04-06T14:24:06;4.55;;;1.95;;
57826;SDS011;43656;57.746;11.780;2023-04-06T14:26:33;5.35;;;1.70;;
57826;SDS011;43656;57.746;11.780;2023-04-06T14:28:58;5.45;;;1.70;;
57826;SDS011;43656;57.746;11.780;2023-04-06T14:31:25;4.85;;;1.90;;
57826;SDS011;43656;57.746;11.780;2023-04-06T14:33:51;3.70;;;1.65;;